createdAt,value
2023-04-29T00:00:15.825Z,12.40
2023-04-29T00:02:44.355Z,12.20
2023-04-29T00:05:15.662Z,12.20
2023-04-29T00:07:44.198Z,12.10
2023-04-29T00:10:17.903Z,12.00
2023-04-29T00:12:46.146Z,12.00
2023-04-29T00:15:14.890Z,12.00
2023-04-29T00:17:43.430Z,12.00
2023-04-29T00:20:15.244Z,12.00
2023-04-29T00:22:43.519Z,11.90
2023-04-29T00:25:13.743Z,11.90
2023-04-29T00:27:41.939Z,11.90
2023-04-29T00:30:11.624Z,11.90
2023-04-29T00:32:44.419Z,11.90
2023-04-29T00:35:14.906Z,11.80
2023-04-29T00:37:43.259Z,11.80
2023-04-29T00:40:15.263Z,11.80
2023-04-29T00:42:43.692Z,11.80
2023-04-29T00:45:13.961Z,11.70
2023-04-29T00:47:42.013Z,11.70
2023-04-29T00:50:10.480Z,11.70
2023-04-29T00:52:41.624Z,11.70
2023-04-29T00:55:10.252Z,11.80
2023-04-29T00:57:40.031Z,11.90
2023-04-29T01:00:10.103Z,11.90
2023-04-29T01:02:38.905Z,12.00
2023-04-29T01:05:07.813Z,12.10
2023-04-29T01:07:39.065Z,12.20
2023-04-29T01:10:12.187Z,12.20
2023-04-29T01:12:44.353Z,12.30
2023-04-29T01:15:18.479Z,12.30
2023-04-29T01:17:57.022Z,12.50
2023-04-29T01:20:25.682Z,12.60
2023-04-29T01:22:54.106Z,12.60
2023-04-29T01:25:24.659Z,12.70
2023-04-29T01:28:28.860Z,12.70
2023-04-29T01:31:02.405Z,12.70
2023-04-29T01:33:32.771Z,12.80
2023-04-29T01:36:07.731Z,12.80
2023-04-29T01:38:39.472Z,12.80
2023-04-29T01:41:12.630Z,12.80
2023-04-29T01:43:41.766Z,12.80
2023-04-29T01:46:22.129Z,12.80
2023-04-29T01:48:54.142Z,12.80
2023-04-29T01:51:22.422Z,12.80
2023-04-29T01:53:51.197Z,12.70
2023-04-29T01:56:21.830Z,12.70
2023-04-29T01:59:19.221Z,12.70
2023-04-29T02:02:10.541Z,12.70
2023-04-29T02:04:46.532Z,12.60
2023-04-29T02:07:14.800Z,12.60
2023-04-29T02:09:43.956Z,12.50
2023-04-29T02:12:15.807Z,12.50
2023-04-29T02:14:47.814Z,12.50
2023-04-29T02:17:16.091Z,12.50
2023-04-29T02:19:45.449Z,12.50
2023-04-29T02:22:15.399Z,12.50
2023-04-29T02:24:43.993Z,12.60
2023-04-29T02:27:12.918Z,12.60
2023-04-29T02:29:43.570Z,12.70
2023-04-29T02:32:11.833Z,12.80
2023-04-29T02:34:40.764Z,12.90
2023-04-29T02:37:08.813Z,13.00
2023-04-29T02:39:43.237Z,13.00
2023-04-29T02:42:11.323Z,13.10
2023-04-29T02:44:39.818Z,13.10
2023-04-29T02:47:11.175Z,13.20
2023-04-29T02:49:41.079Z,13.10
2023-04-29T02:52:09.466Z,13.20
2023-04-29T02:54:38.108Z,13.10
2023-04-29T02:57:06.144Z,13.10
2023-04-29T02:59:36.309Z,13.10
2023-04-29T03:02:07.522Z,13.10
2023-04-29T03:04:37.302Z,13.00
2023-04-29T03:07:07.969Z,13.00
2023-04-29T03:09:36.250Z,13.00
2023-04-29T03:12:04.516Z,12.90
2023-04-29T03:14:33.078Z,12.90
2023-04-29T03:17:01.321Z,12.90
2023-04-29T03:19:29.751Z,12.90
2023-04-29T03:21:59.405Z,12.90
2023-04-29T03:24:27.646Z,12.90
2023-04-29T03:26:56.007Z,12.90
2023-04-29T03:29:24.281Z,12.90
2023-04-29T03:31:54.270Z,12.90
2023-04-29T03:34:22.588Z,12.90
2023-04-29T03:37:03.987Z,12.90
2023-04-29T03:39:35.684Z,12.90
2023-04-29T03:42:04.630Z,12.90
2023-04-29T03:44:34.931Z,12.80
2023-04-29T03:47:02.901Z,12.80
2023-04-29T03:49:31.907Z,12.80
2023-04-29T03:52:00.180Z,12.80
2023-04-29T03:54:31.010Z,12.80
2023-04-29T03:57:00.442Z,12.80
2023-04-29T03:59:30.316Z,12.70
2023-04-29T04:01:58.973Z,12.60
2023-04-29T04:04:27.606Z,12.50
2023-04-29T04:06:57.477Z,12.40
2023-04-29T04:09:33.802Z,12.30
2023-04-29T04:12:03.155Z,12.30
2023-04-29T04:14:31.672Z,12.20
2023-04-29T04:17:00.008Z,12.20
2023-04-29T04:19:31.548Z,12.20
2023-04-29T04:22:01.607Z,12.30
2023-04-29T04:24:31.487Z,12.40
2023-04-29T04:26:59.542Z,12.50
2023-04-29T04:29:35.828Z,12.50
2023-04-29T04:32:09.798Z,12.60
2023-04-29T04:34:40.529Z,12.60
2023-04-29T04:37:08.774Z,12.70
2023-04-29T04:39:39.714Z,12.70
2023-04-29T04:42:09.451Z,12.70
2023-04-29T04:44:39.617Z,12.90
2023-04-29T04:47:11.547Z,12.90
2023-04-29T04:49:49.765Z,12.90
2023-04-29T04:52:21.309Z,13.00
2023-04-29T04:54:57.133Z,13.10
2023-04-29T04:57:28.236Z,13.10
2023-04-29T05:00:04.114Z,13.10
2023-04-29T05:02:33.698Z,13.20
2023-04-29T05:05:02.317Z,13.20
2023-04-29T05:07:36.324Z,13.30
2023-04-29T05:10:10.674Z,13.30
2023-04-29T05:12:52.084Z,13.40
2023-04-29T05:15:21.753Z,13.60
2023-04-29T05:17:53.349Z,13.70
2023-04-29T05:20:22.125Z,13.80
2023-04-29T05:22:50.968Z,13.90
2023-04-29T05:25:20.967Z,14.00
2023-04-29T05:27:49.731Z,14.10
2023-04-29T05:30:20.948Z,14.20
2023-04-29T05:32:49.572Z,14.20
2023-04-29T05:35:21.119Z,14.30
2023-04-29T05:37:49.459Z,14.40
2023-04-29T05:40:53.107Z,14.50
2023-04-29T05:43:21.261Z,14.80
2023-04-29T05:45:49.553Z,14.90
2023-04-29T05:48:23.065Z,14.90
2023-04-29T05:50:51.290Z,15.00
2023-04-29T05:53:19.993Z,15.20
2023-04-29T05:55:51.531Z,15.20
2023-04-29T05:58:22.094Z,15.10
2023-04-29T06:00:50.824Z,15.20
2023-04-29T06:03:24.261Z,15.10
2023-04-29T06:06:01.169Z,15.20
2023-04-29T06:08:49.191Z,15.60
2023-04-29T06:11:24.620Z,15.80
2023-04-29T06:13:57.142Z,15.90
2023-04-29T06:16:25.502Z,15.90
2023-04-29T06:19:02.064Z,15.90
2023-04-29T06:21:41.206Z,16.00
2023-04-29T06:24:10.318Z,16.10
2023-04-29T06:26:40.042Z,16.40
2023-04-29T06:29:09.443Z,16.60
2023-04-29T06:31:38.878Z,17.00
2023-04-29T06:34:12.002Z,18.40
2023-04-29T06:36:50.958Z,19.50
2023-04-29T06:39:45.572Z,19.70
2023-04-29T06:42:25.284Z,19.20
2023-04-29T06:45:13.014Z,18.60
2023-04-29T06:47:47.554Z,18.20
2023-04-29T06:50:26.511Z,17.70
2023-04-29T06:52:54.600Z,17.40
2023-04-29T06:55:24.300Z,17.30
2023-04-29T06:57:55.431Z,17.10
2023-04-29T07:00:23.606Z,16.80
2023-04-29T07:02:51.919Z,16.80
2023-04-29T07:05:22.038Z,16.70
2023-04-29T07:07:50.878Z,16.70
2023-04-29T07:10:20.410Z,16.80
2023-04-29T07:12:49.596Z,16.80
2023-04-29T07:15:19.446Z,16.80
2023-04-29T07:17:47.529Z,16.80
2023-04-29T07:20:15.997Z,16.60
2023-04-29T07:22:44.795Z,16.70
2023-04-29T07:25:18.257Z,16.60
2023-04-29T07:27:46.543Z,16.60
2023-04-29T07:30:14.695Z,16.60
2023-04-29T07:32:44.737Z,16.80
2023-04-29T07:35:13.423Z,17.10
2023-04-29T07:37:44.226Z,17.50
2023-04-29T07:40:13.306Z,18.00
2023-04-29T07:42:41.757Z,18.70
2023-04-29T07:45:10.951Z,19.30
2023-04-29T07:47:40.653Z,19.50
2023-04-29T07:50:17.272Z,19.40
2023-04-29T07:52:47.188Z,19.40
2023-04-29T07:55:19.744Z,19.30
2023-04-29T07:57:48.049Z,19.10
2023-04-29T08:00:16.595Z,18.80
2023-04-29T08:02:46.102Z,19.20
2023-04-29T08:05:21.109Z,20.30
2023-04-29T08:07:49.507Z,21.00
2023-04-29T08:10:17.950Z,21.40
2023-04-29T08:12:47.066Z,21.20
2023-04-29T08:15:15.462Z,20.90
2023-04-29T08:17:43.838Z,20.40
2023-04-29T08:20:13.373Z,20.10
2023-04-29T08:22:43.785Z,19.50
2023-04-29T08:25:13.239Z,19.00
2023-04-29T08:27:43.590Z,18.50
2023-04-29T08:30:11.957Z,18.30
2023-04-29T08:32:40.294Z,18.20
2023-04-29T08:35:09.568Z,18.20
2023-04-29T08:37:38.016Z,18.30
2023-04-29T08:40:09.275Z,18.40
2023-04-29T08:42:38.687Z,18.40
2023-04-29T08:45:07.770Z,18.40
2023-04-29T08:47:37.138Z,18.20
2023-04-29T08:50:08.669Z,18.20
2023-04-29T08:52:37.090Z,18.30
2023-04-29T08:55:05.918Z,18.20
2023-04-29T08:57:40.020Z,18.10
2023-04-29T09:00:10.355Z,18.10
2023-04-29T09:02:40.455Z,18.10
2023-04-29T09:05:11.445Z,18.20
2023-04-29T09:07:39.587Z,18.30
2023-04-29T09:10:08.945Z,18.60
2023-04-29T09:12:39.054Z,18.60
2023-04-29T09:15:08.181Z,18.40
2023-04-29T09:17:44.131Z,18.60
2023-04-29T09:20:31.832Z,18.60
2023-04-29T09:23:01.674Z,18.80
2023-04-29T09:25:30.607Z,18.60
2023-04-29T09:28:00.549Z,18.40
2023-04-29T09:30:30.337Z,18.30
2023-04-29T09:33:09.414Z,18.30
2023-04-29T09:35:42.233Z,18.10
2023-04-29T09:38:12.064Z,18.00
2023-04-29T09:40:54.241Z,17.90
2023-04-29T09:43:27.864Z,18.00
2023-04-29T09:45:56.532Z,18.10
2023-04-29T09:48:32.025Z,18.20
2023-04-29T09:51:02.575Z,18.30
2023-04-29T09:53:31.819Z,18.10
2023-04-29T09:56:00.808Z,18.20
2023-04-29T09:58:31.524Z,18.30
2023-04-29T10:01:01.796Z,18.40
2023-04-29T10:03:32.946Z,18.30
2023-04-29T10:06:02.106Z,18.40
2023-04-29T10:08:31.848Z,18.40
2023-04-29T10:11:01.208Z,18.60
2023-04-29T10:13:38.972Z,18.60
2023-04-29T10:16:12.736Z,18.30
2023-04-29T10:18:42.830Z,17.90
2023-04-29T10:21:11.254Z,17.60
2023-04-29T10:23:43.257Z,17.30
2023-04-29T10:26:13.483Z,17.20
2023-04-29T10:28:43.663Z,17.10
2023-04-29T10:31:12.085Z,17.00
2023-04-29T10:33:41.610Z,16.70
2023-04-29T10:36:11.727Z,16.60
2023-04-29T10:38:41.850Z,16.70
2023-04-29T10:41:11.893Z,16.80
2023-04-29T10:43:40.195Z,17.00
2023-04-29T10:46:22.747Z,17.10
2023-04-29T10:48:52.947Z,17.00
2023-04-29T10:51:32.156Z,17.00
2023-04-29T10:54:02.182Z,17.10
2023-04-29T10:56:37.180Z,17.10
2023-04-29T10:59:05.142Z,17.40
2023-04-29T11:01:49.437Z,17.60
2023-04-29T11:04:20.685Z,17.70
2023-04-29T11:06:52.549Z,17.30
2023-04-29T11:09:22.408Z,16.90
2023-04-29T11:12:00.583Z,16.60
2023-04-29T11:14:31.151Z,16.40
2023-04-29T11:17:02.940Z,16.40
2023-04-29T11:19:33.860Z,16.50
2023-04-29T11:22:05.898Z,16.60
2023-04-29T11:24:35.391Z,16.80
2023-04-29T11:27:05.528Z,16.90
2023-04-29T11:29:34.429Z,17.00
2023-04-29T11:32:05.552Z,17.00
2023-04-29T11:34:35.391Z,16.90
2023-04-29T11:37:03.601Z,16.90
2023-04-29T11:39:34.638Z,17.00
2023-04-29T11:42:07.519Z,17.30
2023-04-29T11:44:37.669Z,17.70
2023-04-29T11:47:07.856Z,18.40
2023-04-29T11:49:37.807Z,18.60
2023-04-29T11:52:06.293Z,19.10
2023-04-29T11:54:34.413Z,19.80
2023-04-29T11:57:04.319Z,20.60
2023-04-29T11:59:32.736Z,20.90
2023-04-29T12:02:01.838Z,21.40
2023-04-29T12:04:31.648Z,22.40
2023-04-29T12:07:00.033Z,23.80
2023-04-29T12:09:28.515Z,24.80
2023-04-29T12:11:57.643Z,25.80
2023-04-29T12:14:26.034Z,26.30
2023-04-29T12:16:54.959Z,26.60
2023-04-29T12:19:24.989Z,27.20
2023-04-29T12:21:54.597Z,27.10
2023-04-29T12:24:24.355Z,27.40
2023-04-29T12:26:54.066Z,28.20
2023-04-29T12:29:24.241Z,28.50
2023-04-29T12:31:53.092Z,28.40
2023-04-29T12:34:26.918Z,28.40
2023-04-29T12:36:57.703Z,27.60
2023-04-29T12:39:27.100Z,27.40
2023-04-29T12:41:56.582Z,27.60
2023-04-29T12:44:25.202Z,28.20
2023-04-29T12:46:58.296Z,28.70
2023-04-29T12:49:29.130Z,27.90
2023-04-29T12:51:59.217Z,27.10
2023-04-29T12:54:27.555Z,26.80
2023-04-29T12:56:56.067Z,26.50
2023-04-29T12:59:27.343Z,25.80
2023-04-29T13:01:56.556Z,25.20
2023-04-29T13:04:25.335Z,25.20
2023-04-29T13:07:00.297Z,24.90
2023-04-29T13:09:30.966Z,24.40
2023-04-29T13:11:59.791Z,23.40
2023-04-29T13:14:28.451Z,22.50
2023-04-29T13:16:57.164Z,22.10
2023-04-29T13:19:43.483Z,21.90
2023-04-29T13:22:15.352Z,21.60
2023-04-29T13:24:48.343Z,21.30
2023-04-29T13:27:17.497Z,20.80
2023-04-29T13:29:52.067Z,20.40
2023-04-29T13:35:36.066Z,19.60
2023-04-29T13:38:04.497Z,19.30
2023-04-29T13:43:39.018Z,19.20
2023-04-29T13:46:09.293Z,19.40
2023-04-29T13:52:20.328Z,19.40
2023-04-29T13:58:31.185Z,19.30
2023-04-29T14:00:45.402Z,19.40
2023-04-29T14:03:20.413Z,19.50
2023-04-29T14:05:51.573Z,19.50
2023-04-29T14:08:19.685Z,19.50
2023-04-29T14:10:51.418Z,19.70
2023-04-29T14:13:21.455Z,19.90
2023-04-29T14:15:59.811Z,20.30
2023-04-29T14:18:34.217Z,20.70
2023-04-29T14:21:03.264Z,21.10
2023-04-29T14:23:35.103Z,21.20
2023-04-29T14:26:23.107Z,21.30
2023-04-29T14:29:05.271Z,21.30
2023-04-29T14:31:38.063Z,21.00
2023-04-29T14:34:11.465Z,20.60
2023-04-29T14:36:44.337Z,20.20
2023-04-29T14:39:17.732Z,20.00
2023-04-29T14:42:03.004Z,19.70
2023-04-29T14:44:33.586Z,19.50
2023-04-29T14:47:01.704Z,19.10
2023-04-29T14:49:31.568Z,18.90
2023-04-29T14:52:02.451Z,18.80
2023-04-29T16:21:47.802Z,18.70
2023-04-29T16:24:17.872Z,18.20
2023-04-29T16:26:48.053Z,17.90
2023-04-29T16:29:18.456Z,17.40
2023-04-29T16:31:48.605Z,17.30
2023-04-29T16:34:18.289Z,17.10
2023-04-29T16:36:48.456Z,16.90
2023-04-29T16:39:17.908Z,16.80
2023-04-29T16:41:46.982Z,16.80
2023-04-29T16:44:18.466Z,16.90
2023-04-29T16:46:47.724Z,16.80
2023-04-29T16:49:20.080Z,16.70
2023-04-29T16:51:50.734Z,16.70
2023-04-29T16:54:19.677Z,16.70
2023-04-29T16:56:50.772Z,16.60
2023-04-29T16:59:20.151Z,16.60
2023-04-29T17:01:49.742Z,16.50
2023-04-29T17:04:18.648Z,16.50
2023-04-29T17:06:47.655Z,16.30
2023-04-29T17:09:24.439Z,16.20
2023-04-29T17:11:53.711Z,16.10
2023-04-29T17:14:24.673Z,16.00
2023-04-29T17:16:53.792Z,15.90
2023-04-29T17:19:25.094Z,15.80
2023-04-29T17:21:53.702Z,15.70
2023-04-29T17:24:25.458Z,15.60
2023-04-29T17:26:53.695Z,15.50
2023-04-29T17:29:21.815Z,15.40
2023-04-29T17:31:59.668Z,15.30
2023-04-29T17:34:30.027Z,15.30
2023-04-29T17:36:58.283Z,15.20
2023-04-29T17:39:32.184Z,15.20
2023-04-29T17:42:02.849Z,15.20
2023-04-29T17:44:31.593Z,15.00
2023-04-29T17:47:00.211Z,15.00
2023-04-29T17:49:29.167Z,14.90
2023-04-29T17:51:57.379Z,14.90
2023-04-29T17:54:26.329Z,14.90
2023-04-29T17:56:57.003Z,14.90
2023-04-29T17:59:25.742Z,14.80
2023-04-29T18:01:54.353Z,14.80
2023-04-29T18:04:22.911Z,14.80
2023-04-29T18:06:51.613Z,14.70
2023-04-29T18:09:20.243Z,14.70
2023-04-29T18:11:50.221Z,14.60
2023-04-29T18:14:22.042Z,14.50
2023-04-29T18:16:53.089Z,14.50
2023-04-29T18:19:36.970Z,14.50
2023-04-29T18:22:06.383Z,14.40
2023-04-29T18:24:36.004Z,14.40
2023-04-29T18:27:04.214Z,14.30
2023-04-29T18:29:35.878Z,14.30
2023-04-29T18:32:06.403Z,14.30
2023-04-29T18:34:36.632Z,14.30
2023-04-29T18:37:05.549Z,14.20
2023-04-29T18:39:34.214Z,14.10
2023-04-29T18:42:06.267Z,14.00
2023-04-29T18:47:56.761Z,13.90
2023-04-29T18:50:25.534Z,13.90
2023-04-29T18:52:54.292Z,13.90
2023-04-29T18:55:25.611Z,13.90
2023-04-29T18:57:54.901Z,13.90
2023-04-29T19:00:24.562Z,13.90
2023-04-29T19:02:55.627Z,13.80
2023-04-29T19:05:24.897Z,13.80
2023-04-29T19:07:54.711Z,13.80
2023-04-29T19:10:24.660Z,13.70
2023-04-29T19:12:53.799Z,13.70
2023-04-29T19:15:25.057Z,13.60
2023-04-29T19:17:54.989Z,13.70
2023-04-29T19:20:24.175Z,13.60
2023-04-29T19:22:53.537Z,13.60
2023-04-29T19:25:27.016Z,13.60
2023-04-29T19:27:56.725Z,13.60
2023-04-29T19:30:25.390Z,13.70
2023-04-29T19:32:57.793Z,13.70
2023-04-29T19:35:28.102Z,13.70
2023-04-29T19:37:56.755Z,13.70
2023-04-29T19:40:25.112Z,13.70
2023-04-29T19:42:53.610Z,13.70
2023-04-29T19:45:22.210Z,13.60
2023-04-29T19:47:51.754Z,13.70
2023-04-29T19:50:23.037Z,13.70
2023-04-29T19:52:51.952Z,13.70
2023-04-29T19:55:20.544Z,13.60
2023-04-29T19:57:50.367Z,13.60
2023-04-29T20:00:19.793Z,13.60
2023-04-29T20:02:51.517Z,13.60
2023-04-29T20:05:22.824Z,13.60
2023-04-29T20:07:52.127Z,13.60
2023-04-29T20:10:20.906Z,13.60
2023-04-29T20:12:51.408Z,13.60
2023-04-29T20:15:20.156Z,13.60
2023-04-29T20:17:50.777Z,13.60
2023-04-29T20:20:20.818Z,13.60
2023-04-29T20:22:59.048Z,13.50
2023-04-29T20:25:30.550Z,13.40
2023-04-29T20:27:59.282Z,13.40
2023-04-29T20:30:28.215Z,13.40
2023-04-29T20:33:00.369Z,13.40
2023-04-29T20:35:29.858Z,13.30
2023-04-29T20:38:00.022Z,13.30
2023-04-29T20:40:28.838Z,13.30
2023-04-29T20:42:57.556Z,13.20
2023-04-29T20:45:26.755Z,13.20
2023-04-29T20:47:56.723Z,13.20
2023-04-29T20:50:26.467Z,13.20
2023-04-29T20:52:54.891Z,13.20
2023-04-29T20:55:28.831Z,13.20
2023-04-29T20:57:58.806Z,13.20
2023-04-29T21:00:31.381Z,13.20
2023-04-29T21:03:02.716Z,13.20
2023-04-29T21:05:32.858Z,13.20
2023-04-29T21:08:27.545Z,13.10
2023-04-29T21:10:58.015Z,13.20
2023-04-29T21:13:27.292Z,13.20
2023-04-29T21:15:57.492Z,13.10
2023-04-29T21:18:29.404Z,13.20
2023-04-29T21:20:58.039Z,13.20
2023-04-29T21:23:26.873Z,13.20
2023-04-29T21:25:57.350Z,13.10
2023-04-29T21:28:26.035Z,13.10
2023-04-29T21:30:55.170Z,13.10
2023-04-29T21:33:26.918Z,13.10
2023-04-29T21:35:56.652Z,13.10
2023-04-29T21:38:26.098Z,13.00
2023-04-29T21:41:00.812Z,13.00
2023-04-29T21:43:31.463Z,13.10
2023-04-29T21:46:00.341Z,13.00
2023-04-29T21:48:31.233Z,13.00
2023-04-29T21:51:00.390Z,13.00
2023-04-29T21:53:29.410Z,13.00
2023-04-29T21:55:59.278Z,13.10
2023-04-29T21:58:32.551Z,13.10
2023-04-29T22:01:03.521Z,13.10
2023-04-29T22:03:32.576Z,13.20
2023-04-29T22:06:05.006Z,13.20
2023-04-29T22:08:37.040Z,13.20
2023-04-29T22:11:10.798Z,13.10
2023-04-29T22:16:43.862Z,13.10
2023-04-29T22:22:05.225Z,13.00
2023-04-29T22:27:47.717Z,12.90
2023-04-29T22:30:35.580Z,12.90
2023-04-29T22:33:04.223Z,12.80
2023-04-29T22:35:37.422Z,12.80
2023-04-29T22:38:07.325Z,12.80
2023-04-29T22:40:37.696Z,12.80
2023-04-29T22:43:07.817Z,12.80
2023-04-29T22:45:37.801Z,12.80
2023-04-29T22:48:20.632Z,12.80
2023-04-29T22:50:55.680Z,12.80
2023-04-29T22:53:24.756Z,12.80
2023-04-29T22:56:05.537Z,12.80
2023-04-29T22:58:47.936Z,12.80
2023-04-29T23:01:25.633Z,12.80
2023-04-29T23:03:57.556Z,12.80
2023-04-29T23:06:36.349Z,12.80
2023-04-29T23:09:09.370Z,12.70
2023-04-29T23:11:42.550Z,12.70
2023-04-29T23:14:11.971Z,12.60
2023-04-29T23:16:41.659Z,12.60
2023-04-29T23:19:11.618Z,12.60
2023-04-29T23:21:42.929Z,12.60
2023-04-29T23:24:26.450Z,12.60
2023-04-29T23:27:04.701Z,12.60
2023-04-29T23:29:35.201Z,12.60
2023-04-29T23:34:49.299Z,12.50
2023-04-29T23:37:20.322Z,12.60
2023-04-29T23:40:01.448Z,12.60
2023-04-29T23:42:31.620Z,12.60
2023-04-29T23:45:06.782Z,12.60
2023-04-29T23:47:40.604Z,12.60
2023-04-29T23:50:15.019Z,12.60
2023-04-29T23:52:55.960Z,12.50
2023-04-29T23:55:28.964Z,12.50
2023-04-29T23:57:58.656Z,12.40
